Time;durP1;ratioP1;P1;durP2;ratioP2;P2;SDS_P1;SDS_P2;PMS_P1;PMS_P2;Temp;Humidity;BMP_temperature;BMP_pressure;BME280_temperature;BME280_humidity;BME280_pressure;Samples;Min_cycle;Max_cycle;Signal;HPM_P1;HPM_P2
2021/07/10 00:01:58;;;;;;;202.23;193.40;;;14.00;99.90;;;;;;6217006;23;20896;-93
2021/07/10 00:04:33;;;;;;;222.70;213.50;;;14.00;99.90;;;;;;6229985;23;20487;-90
2021/07/10 00:07:04;;;;;;;193.13;184.60;;;13.90;99.90;;;;;;6218452;23;20428;-90
2021/07/10 00:09:45;;;;;;;182.40;174.13;;;14.00;99.90;;;;;;6228128;23;20447;-93
2021/07/10 00:12:23;;;;;;;230.43;221.10;;;13.90;99.90;;;;;;6228147;23;20405;-92
2021/07/10 00:15:00;;;;;;;235.77;225.60;;;13.80;99.90;;;;;;6228898;23;20470;-93
2021/07/10 00:17:42;;;;;;;231.20;221.37;;;13.80;99.90;;;;;;6229772;23;20435;-95
2021/07/10 00:20:12;;;;;;;273.97;262.87;;;13.80;99.90;;;;;;6225032;23;20420;-93
2021/07/10 00:22:46;;;;;;;307.97;295.83;;;13.70;99.90;;;;;;6230113;23;20416;-93
2021/07/10 00:27:58;;;;;;;293.77;282.33;;;13.80;99.90;;;;;;6212137;23;20503;-92
2021/07/10 00:30:27;;;;;;;307.97;295.60;;;13.80;99.90;;;;;;6219312;23;20420;-93
2021/07/10 00:32:57;;;;;;;300.40;287.87;;;13.70;99.90;;;;;;6232118;23;20528;-94
2021/07/10 00:35:33;;;;;;;278.43;266.67;;;13.70;99.90;;;;;;6228133;23;20408;-92
2021/07/10 00:38:03;;;;;;;259.53;249.27;;;13.70;99.90;;;;;;6228146;23;20475;-93
2021/07/10 00:40:38;;;;;;;286.33;272.33;;;13.70;99.90;;;;;;6226873;23;20896;-93
2021/07/10 00:43:05;;;;;;;254.73;244.53;;;13.70;99.90;;;;;;6228128;23;20443;-89
2021/07/10 00:45:43;;;;;;;220.97;211.93;;;13.60;99.90;;;;;;6218726;23;20403;-92
2021/07/10 00:48:27;;;;;;;;;;;;;;;;;;;;;
2021/07/10 00:51:01;;;;;;;229.43;219.73;;;13.30;99.90;;;;;;6227087;23;20412;-89
2021/07/10 00:53:28;;;;;;;235.33;225.53;;;13.40;99.90;;;;;;6226760;23;20785;-91
2021/07/10 00:55:57;;;;;;;221.50;212.27;;;13.30;99.90;;;;;;6226087;23;20408;-92
2021/07/10 00:58:27;;;;;;;246.00;235.30;;;13.30;99.90;;;;;;6217018;23;20408;-90
2021/07/10 01:01:02;;;;;;;228.57;219.07;;;13.20;99.90;;;;;;6226979;23;20417;-92
2021/07/10 01:03:33;;;;;;;200.50;191.67;;;13.10;99.90;;;;;;6226918;23;20494;-91
2021/07/10 01:06:05;;;;;;;196.23;187.87;;;13.10;99.90;;;;;;6227170;23;20786;-91
2021/07/10 01:08:35;;;;;;;184.90;176.90;;;13.10;99.90;;;;;;6227496;23;20761;-92
2021/07/10 01:11:05;;;;;;;188.27;180.03;;;13.10;99.90;;;;;;6226538;23;20459;-92
2021/07/10 01:13:32;;;;;;;200.17;191.33;;;13.20;99.90;;;;;;6226165;23;20412;-90
2021/07/10 01:16:01;;;;;;;193.67;184.87;;;13.10;99.90;;;;;;6226819;23;20405;-92
2021/07/10 01:18:28;;;;;;;195.37;186.17;;;13.10;99.90;;;;;;6227043;23;20892;-90
2021/07/10 01:20:59;;;;;;;205.23;196.13;;;13.10;99.90;;;;;;6226378;23;20516;-92
2021/07/10 01:23:28;;;;;;;204.77;195.80;;;13.20;99.90;;;;;;6215970;23;20413;-92
2021/07/10 01:25:58;;;;;;;192.53;183.67;;;13.10;99.90;;;;;;6215843;23;20396;-92
2021/07/10 01:28:27;;;;;;;192.67;183.37;;;13.10;99.90;;;;;;6215166;23;20447;-91
2021/07/10 01:30:54;;;;;;;199.00;189.57;;;13.00;99.90;;;;;;6226144;23;20954;-92
2021/07/10 01:33:25;;;;;;;198.47;188.93;;;12.90;99.90;;;;;;6226464;23;20699;-92
2021/07/10 01:35:52;;;;;;;203.53;193.37;;;12.90;99.90;;;;;;6226198;23;20428;-89
2021/07/10 01:38:28;;;;;;;195.93;186.67;;;12.90;99.90;;;;;;6226370;23;20423;-92
2021/07/10 01:40:58;;;;;;;192.70;183.40;;;13.00;99.90;;;;;;6215237;23;20412;-91
2021/07/10 01:43:28;;;;;;;191.23;181.40;;;12.80;99.90;;;;;;6225852;23;20412;-92
2021/07/10 01:46:00;;;;;;;188.97;179.17;;;12.80;99.90;;;;;;6216445;23;20397;-89
2021/07/10 01:48:33;;;;;;;201.27;191.10;;;12.90;99.90;;;;;;6225688;23;21023;-90
2021/07/10 01:51:01;;;;;;;193.10;182.97;;;12.80;99.90;;;;;;6226347;23;20413;-89
2021/07/10 01:53:30;;;;;;;189.17;179.60;;;12.80;99.90;;;;;;6215668;23;20432;-89
2021/07/10 01:56:00;;;;;;;185.83;176.10;;;12.80;99.90;;;;;;6224900;23;20412;-93
2021/07/10 01:58:29;;;;;;;174.63;165.10;;;12.80;99.90;;;;;;6225919;23;20946;-92
2021/07/10 02:00:59;;;;;;;184.57;174.87;;;12.70;99.90;;;;;;6225899;23;20774;-92
2021/07/10 02:03:32;;;;;;;181.77;172.47;;;12.70;99.90;;;;;;6225611;23;20467;-93
2021/07/10 02:06:03;;;;;;;175.10;165.87;;;12.60;99.90;;;;;;6216054;23;20400;-89
2021/07/10 02:08:36;;;;;;;170.13;161.10;;;12.60;99.90;;;;;;6215699;23;20436;-89
2021/07/10 02:11:05;;;;;;;172.97;163.17;;;12.50;99.90;;;;;;6224447;23;20488;-91
2021/07/10 02:13:36;;;;;;;170.17;161.37;;;12.50;99.90;;;;;;6225902;23;20450;-91
2021/07/10 02:16:04;;;;;;;180.73;170.83;;;12.40;99.90;;;;;;6226052;23;20412;-89
2021/07/10 02:18:34;;;;;;;179.27;169.37;;;12.40;99.90;;;;;;6225574;23;20421;-92
2021/07/10 02:21:06;;;;;;;187.80;177.63;;;12.40;99.90;;;;;;6225684;23;20510;-90
2021/07/10 02:23:35;;;;;;;185.70;175.87;;;12.30;99.90;;;;;;6226123;23;20411;-91
2021/07/10 02:26:08;;;;;;;188.77;178.93;;;12.40;99.90;;;;;;6224954;23;20420;-93
2021/07/10 02:28:42;;;;;;;189.60;179.43;;;12.40;99.90;;;;;;6225831;23;20939;-91
2021/07/10 02:31:09;;;;;;;200.27;190.27;;;12.40;99.90;;;;;;6215249;23;20522;-93
2021/07/10 02:33:38;;;;;;;198.03;187.90;;;12.40;99.90;;;;;;6225818;23;20412;-92
2021/07/10 02:36:12;;;;;;;207.83;196.63;;;12.50;99.90;;;;;;6215966;23;20408;-89
2021/07/10 02:38:44;;;;;;;203.50;192.47;;;12.50;99.90;;;;;;6225691;23;20725;-91
2021/07/10 02:41:16;;;;;;;212.70;200.60;;;12.60;99.90;;;;;;6214631;23;20443;-93
2021/07/10 02:43:45;;;;;;;206.90;196.40;;;12.40;99.90;;;;;;6225473;23;20872;-91
2021/07/10 02:46:13;;;;;;;208.80;198.50;;;12.40;99.90;;;;;;6225218;23;20725;-93
2021/07/10 02:48:40;;;;;;;208.50;197.67;;;12.40;99.90;;;;;;6225741;23;20464;-93
2021/07/10 02:51:09;;;;;;;208.53;197.90;;;12.40;99.90;;;;;;6225373;23;20413;-90
2021/07/10 02:53:36;;;;;;;201.13;191.03;;;12.40;99.90;;;;;;6215893;23;20401;-90
2021/07/10 02:56:16;;;;;;;211.43;201.10;;;12.40;99.90;;;;;;6224254;23;20499;-87
2021/07/10 02:58:51;;;;;;;206.97;196.23;;;12.50;99.90;;;;;;6225778;23;20423;-93
2021/07/10 03:01:22;;;;;;;203.47;192.67;;;12.40;99.90;;;;;;6225513;23;20450;-92
2021/07/10 03:03:50;;;;;;;204.63;193.73;;;12.40;99.90;;;;;;6225745;23;20436;-92
2021/07/10 03:06:22;;;;;;;203.47;193.07;;;12.40;99.90;;;;;;6215846;23;20407;-92
2021/07/10 03:08:51;;;;;;;181.47;172.10;;;12.30;99.90;;;;;;6225546;23;20812;-92
2021/07/10 03:11:20;;;;;;;188.73;178.57;;;12.30;99.90;;;;;;6224416;23;21098;-87
2021/07/10 03:13:48;;;;;;;178.83;169.30;;;12.30;99.90;;;;;;6225318;23;20421;-89
2021/07/10 03:16:15;;;;;;;178.60;169.40;;;12.30;99.90;;;;;;6225712;23;20474;-88
2021/07/10 03:18:50;;;;;;;180.77;171.47;;;12.20;99.90;;;;;;6217033;23;20405;-91
2021/07/10 03:21:17;;;;;;;184.67;174.97;;;12.20;99.90;;;;;;6225738;23;20440;-89
2021/07/10 03:23:44;;;;;;;186.50;176.87;;;12.20;99.90;;;;;;6227195;23;20807;-90
2021/07/10 03:26:15;;;;;;;188.17;178.00;;;12.20;99.90;;;;;;6216082;23;21371;-92
2021/07/10 03:28:53;;;;;;;193.10;182.93;;;12.30;99.90;;;;;;6226944;23;20982;-90
2021/07/10 03:31:22;;;;;;;191.47;181.50;;;12.30;99.90;;;;;;6227407;23;20511;-91
2021/07/10 03:33:51;;;;;;;191.00;181.23;;;12.30;99.90;;;;;;6217111;23;20912;-91
2021/07/10 03:36:18;;;;;;;197.67;186.67;;;12.30;99.90;;;;;;6227208;23;20435;-88
2021/07/10 03:38:47;;;;;;;193.10;182.00;;;12.30;99.90;;;;;;6216935;23;20397;-91
2021/07/10 03:41:15;;;;;;;191.40;181.07;;;12.30;99.90;;;;;;6225825;23;20474;-79
2021/07/10 03:43:55;;;;;;;196.53;186.23;;;12.30;99.90;;;;;;6217266;23;20452;-88
2021/07/10 03:46:22;;;;;;;198.40;187.63;;;12.40;99.90;;;;;;6217088;23;20419;-85
2021/07/10 03:48:49;;;;;;;202.90;192.10;;;12.50;99.90;;;;;;6226588;23;20523;-79
2021/07/10 03:51:16;;;;;;;203.40;192.60;;;12.50;99.90;;;;;;6217163;23;20435;-80
2021/07/10 03:53:51;;;;;;;198.30;187.50;;;12.50;99.90;;;;;;6216931;23;20401;-84
2021/07/10 03:56:49;;;;;;;206.20;195.50;;;12.60;99.90;;;;;;6225667;23;20405;-83
2021/07/10 03:59:38;;;;;;;209.00;197.90;;;12.60;99.90;;;;;;6227156;23;20396;-84
2021/07/10 04:02:06;;;;;;;207.73;197.10;;;12.70;99.90;;;;;;6195623;23;20420;-82
2021/07/10 04:04:36;;;;;;;206.30;195.73;;;12.70;99.90;;;;;;6226615;23;20404;-83
2021/07/10 04:07:07;;;;;;;207.17;196.27;;;12.70;99.90;;;;;;6226315;23;20955;-84
2021/07/10 04:09:38;;;;;;;200.17;189.47;;;12.70;99.90;;;;;;6226675;23;20447;-87
2021/07/10 04:12:05;;;;;;;205.03;194.07;;;12.90;99.90;;;;;;6215483;23;20483;-83
2021/07/10 04:14:37;;;;;;;211.00;200.50;;;13.00;99.90;;;;;;6217035;23;20401;-82
2021/07/10 04:17:06;;;;;;;217.90;206.90;;;13.20;99.90;;;;;;6216691;23;20436;-81
2021/07/10 04:19:33;;;;;;;213.37;202.20;;;13.40;99.90;;;;;;6216312;23;20492;-82
2021/07/10 04:22:00;;;;;;;222.13;210.63;;;13.50;99.90;;;;;;6226188;23;20940;-81
2021/07/10 04:24:27;;;;;;;222.97;211.50;;;13.70;99.90;;;;;;6227035;23;20876;-83
2021/07/10 04:26:54;;;;;;;229.93;217.10;;;13.90;99.90;;;;;;6215407;23;20459;-82
2021/07/10 04:29:21;;;;;;;229.03;218.13;;;14.00;99.90;;;;;;6226856;23;20448;-82
2021/07/10 04:31:49;;;;;;;207.27;196.60;;;14.40;99.90;;;;;;6217024;23;20923;-81
2021/07/10 04:34:16;;;;;;;205.47;195.07;;;14.50;99.90;;;;;;6225901;23;20719;-81
2021/07/10 04:36:44;;;;;;;193.47;183.97;;;14.70;99.90;;;;;;6217018;23;20408;-81
2021/07/10 04:42:13;;;;;;;152.70;143.40;;;14.90;99.90;;;;;;6160708;23;20440;-81
2021/07/10 04:44:40;;;;;;;138.83;130.97;;;15.10;99.90;;;;;;6216403;23;20436;-79
2021/07/10 04:47:08;;;;;;;118.93;111.93;;;15.20;99.90;;;;;;6216626;23;20439;-79
2021/07/10 04:49:35;;;;;;;117.10;110.43;;;15.20;99.90;;;;;;6216142;23;20449;-81
2021/07/10 04:52:02;;;;;;;104.43;98.20;;;15.30;99.90;;;;;;6216567;23;20405;-80
2021/07/10 04:54:32;;;;;;;93.30;87.53;;;15.40;99.90;;;;;;6216551;23;20408;-83
2021/07/10 04:57:17;;;;;;;88.83;83.00;;;15.50;99.90;;;;;;6225154;23;20416;-83
2021/07/10 04:59:46;;;;;;;74.13;68.97;;;15.50;99.90;;;;;;6226154;23;20396;-82
2021/07/10 05:02:14;;;;;;;60.40;55.50;;;15.60;99.90;;;;;;6226147;23;20467;-81
2021/07/10 05:04:41;;;;;;;65.23;60.13;;;15.60;99.90;;;;;;6225861;23;20409;-82
2021/07/10 05:07:08;;;;;;;76.10;71.07;;;15.80;99.90;;;;;;6216342;23;20401;-81
2021/07/10 05:09:35;;;;;;;69.60;64.20;;;15.80;99.90;;;;;;6216043;23;20437;-81
2021/07/10 05:12:01;;;;;;;59.40;54.30;;;16.00;99.90;;;;;;6214958;23;20432;-82
2021/07/10 05:14:28;;;;;;;69.60;64.30;;;16.10;99.90;;;;;;6216242;23;20785;-81
2021/07/10 05:16:56;;;;;;;69.13;63.67;;;16.10;99.90;;;;;;6226021;23;20706;-81
2021/07/10 05:19:26;;;;;;;68.70;63.60;;;16.20;99.90;;;;;;6215883;23;20409;-82
2021/07/10 05:21:53;;;;;;;44.40;39.57;;;16.30;99.90;;;;;;6225640;23;20445;-84
2021/07/10 05:24:20;;;;;;;48.20;38.53;;;16.40;99.90;;;;;;6215994;23;20401;-82
2021/07/10 05:26:48;;;;;;;51.30;46.60;;;16.60;99.90;;;;;;6224413;23;20743;-82
2021/07/10 05:29:16;;;;;;;51.00;46.20;;;16.50;99.90;;;;;;6225847;23;20528;-84
2021/07/10 05:31:43;;;;;;;52.67;48.17;;;16.60;99.90;;;;;;6227263;23;20401;-94
2021/07/10 05:37:11;;;;;;;45.23;41.07;;;16.60;99.90;;;;;;6203081;23;20407;-89
2021/07/10 05:39:43;;;;;;;47.37;40.90;;;16.80;99.90;;;;;;6219704;23;20497;-92
2021/07/10 05:42:13;;;;;;;34.43;25.20;;;16.80;99.90;;;;;;6230698;23;20482;-92
2021/07/10 05:44:40;;;;;;;38.40;31.10;;;17.00;99.90;;;;;;6231679;23;20404;-88
2021/07/10 05:47:11;;;;;;;35.73;24.00;;;17.10;97.70;;;;;;6226352;23;20988;-84
2021/07/10 05:49:40;;;;;;;40.43;29.00;;;17.20;97.50;;;;;;6214799;23;20444;-93
2021/07/10 05:52:17;;;;;;;39.43;25.60;;;17.30;95.30;;;;;;6226899;23;20400;-89
2021/07/10 05:54:47;;;;;;;36.57;21.40;;;17.50;95.40;;;;;;6247407;22;20453;-88
2021/07/10 05:57:29;;;;;;;36.07;22.50;;;17.50;92.70;;;;;;6325965;22;20432;-83
2021/07/10 06:03:13;;;;;;;36.37;18.57;;;17.80;90.30;;;;;;6322542;22;20409;-87
2021/07/10 06:05:42;;;;;;;35.50;15.63;;;18.10;87.10;;;;;;6323195;22;20406;-89
2021/07/10 06:08:16;;;;;;;35.27;16.30;;;18.20;79.80;;;;;;6308556;22;20468;-93
2021/07/10 06:10:50;;;;;;;33.87;14.07;;;18.50;79.30;;;;;;6320097;22;20419;-92
2021/07/10 06:16:25;;;;;;;34.77;11.07;;;19.20;73.50;;;;;;6313556;22;20463;-90
2021/07/10 06:19:03;;;;;;;35.90;10.20;;;19.60;68.70;;;;;;6320023;22;20886;-87
2021/07/10 06:21:49;;;;;;;35.47;9.20;;;19.60;56.90;;;;;;6323388;22;20424;-89
2021/07/10 06:24:19;;;;;;;41.83;10.00;;;19.70;54.30;;;;;;6322187;22;20402;-89
2021/07/10 06:26:54;;;;;;;36.40;8.67;;;20.10;53.30;;;;;;6322361;22;20770;-90
2021/07/10 06:29:21;;;;;;;36.77;8.80;;;20.40;48.70;;;;;;6310563;22;20446;-94
2021/07/10 06:31:50;;;;;;;40.93;9.30;;;20.50;46.00;;;;;;6291715;22;20468;-91
2021/07/10 06:34:26;;;;;;;38.97;9.50;;;20.70;46.50;;;;;;6290511;22;20407;-94
2021/07/10 07:13:34;;;;;;;49.30;9.03;;;22.50;36.70;;;;;;6275513;22;20422;-82
2021/07/10 07:16:00;;;;;;;54.80;8.90;;;23.10;32.50;;;;;;6288239;22;20432;-78
2021/07/10 07:18:27;;;;;;;57.80;9.73;;;23.30;29.90;;;;;;6293625;22;20439;-78
2021/07/10 07:20:54;;;;;;;56.47;10.53;;;23.80;29.80;;;;;;6309330;22;20476;-83
2021/07/10 07:23:21;;;;;;;67.90;11.53;;;24.50;27.30;;;;;;6306868;22;20472;-78
2021/07/10 07:25:48;;;;;;;59.50;11.43;;;24.70;23.70;;;;;;6307649;22;20433;-78
2021/07/10 07:28:15;;;;;;;58.80;11.70;;;25.20;23.40;;;;;;6310777;22;20813;-77
2021/07/10 07:30:43;;;;;;;61.60;12.23;;;25.50;22.20;;;;;;6276330;22;20480;-80
2021/07/10 07:33:10;;;;;;;66.63;25.63;;;25.50;20.60;;;;;;6276482;22;20485;-78
2021/07/10 07:35:37;;;;;;;64.37;21.87;;;25.30;19.20;;;;;;6286370;22;20451;-77
2021/07/10 07:38:04;;;;;;;66.97;29.97;;;25.50;18.20;;;;;;6276408;22;20793;-80
2021/07/10 07:40:31;;;;;;;69.80;34.80;;;25.40;19.90;;;;;;6276214;22;20490;-79
2021/07/10 07:42:58;;;;;;;67.37;31.67;;;25.30;17.30;;;;;;6274872;22;20433;-78
2021/07/10 07:45:28;;;;;;;68.70;28.00;;;25.40;16.00;;;;;;6276555;22;20405;-79
2021/07/10 07:47:56;;;;;;;66.90;31.30;;;25.30;17.20;;;;;;6285677;22;20494;-77
2021/07/10 07:50:24;;;;;;;65.83;21.30;;;24.90;15.70;;;;;;6276237;22;20512;-77
2021/07/10 07:52:51;;;;;;;65.63;17.87;;;24.80;17.00;;;;;;6276519;22;20405;-81
2021/07/10 07:55:18;;;;;;;61.40;19.27;;;24.50;15.40;;;;;;6286398;22;20412;-80
2021/07/10 07:57:45;;;;;;;66.57;28.43;;;24.60;16.90;;;;;;6284631;22;20406;-78
2021/07/10 08:00:15;;;;;;;64.77;31.57;;;24.60;18.00;;;;;;6275913;22;20394;-83
2021/07/10 08:02:43;;;;;;;71.30;38.53;;;24.70;18.30;;;;;;6276244;22;20474;-78
2021/07/10 08:05:12;;;;;;;66.77;34.03;;;24.90;18.00;;;;;;6276561;22;20410;-84
2021/07/10 08:07:39;;;;;;;71.27;35.67;;;24.80;15.90;;;;;;6276284;22;20403;-77
2021/07/10 08:10:08;;;;;;;70.07;41.70;;;25.10;18.10;;;;;;6276548;22;20750;-76
2021/07/10 08:12:35;;;;;;;67.93;39.93;;;25.20;18.00;;;;;;6276220;22;20434;-86
2021/07/10 08:15:20;;;;;;;72.10;42.00;;;25.40;16.80;;;;;;6287919;22;20413;-86
2021/07/10 08:17:56;;;;;;;70.80;40.77;;;25.10;15.90;;;;;;6287906;22;20408;-87
2021/07/10 08:20:42;;;;;;;71.27;41.90;;;25.70;17.40;;;;;;6277494;22;20402;-88
2021/07/10 08:23:17;;;;;;;68.00;38.10;;;25.70;15.70;;;;;;6263617;22;20438;-86
2021/07/10 08:25:54;;;;;;;69.10;41.00;;;26.00;14.40;;;;;;6287888;22;20394;-88
2021/07/10 08:28:23;;;;;;;68.40;35.03;;;25.80;14.10;;;;;;6233171;22;20613;-87
2021/07/10 08:31:00;;;;;;;68.67;34.77;;;25.40;13.90;;;;;;6287766;22;20484;-87
2021/07/10 08:33:35;;;;;;;67.93;36.27;;;26.20;11.50;;;;;;6287908;22;20412;-88
2021/07/10 08:36:04;;;;;;;72.63;44.90;;;26.80;9.90;;;;;;6287796;22;20437;-87
2021/07/10 08:38:46;;;;;;;;;;;;;;;;;;;;;
2021/07/10 08:41:16;;;;;;;70.07;42.57;;;26.40;11.50;;;;;;6286803;22;20714;-87
2021/07/10 08:43:44;;;;;;;74.63;51.13;;;26.30;10.10;;;;;;6277557;22;20473;-89
2021/07/10 08:46:20;;;;;;;79.60;57.67;;;26.80;12.70;;;;;;6277681;22;20486;-88
2021/07/10 08:49:01;;;;;;;81.20;54.70;;;27.00;10.50;;;;;;6287231;22;20408;-84
2021/07/10 08:51:32;;;;;;;68.23;28.03;;;26.90;9.20;;;;;;6287427;22;20461;-89
2021/07/10 08:54:02;;;;;;;75.27;56.87;;;27.10;8.80;;;;;;6287889;22;20430;-85
2021/07/10 08:56:29;;;;;;;78.83;69.00;;;26.90;8.40;;;;;;6286308;22;20395;-88
2021/07/10 08:58:59;;;;;;;77.53;58.27;;;26.80;6.70;;;;;;6287772;22;20410;-88
2021/07/10 09:01:28;;;;;;;75.43;53.23;;;26.90;7.20;;;;;;6287180;22;20406;-88
2021/07/10 09:03:57;;;;;;;82.53;54.33;;;27.10;9.30;;;;;;6276650;22;20410;-89
2021/07/10 09:06:34;;;;;;;78.33;52.13;;;27.50;7.70;;;;;;6287416;22;20398;-88
2021/07/10 09:09:07;;;;;;;70.77;47.83;;;27.00;7.60;;;;;;6287701;22;20505;-89
2021/07/10 09:11:33;;;;;;;75.10;48.23;;;27.30;6.10;;;;;;6275903;22;20437;-87
2021/07/10 09:14:00;;;;;;;72.70;50.70;;;27.30;4.90;;;;;;6287549;22;20489;-80
2021/07/10 09:16:29;;;;;;;78.23;51.57;;;27.50;9.50;;;;;;6277418;22;20421;-80
2021/07/10 09:19:34;;;;;;;74.43;46.87;;;27.00;7.30;;;;;;6276905;22;20776;-84
2021/07/10 09:22:05;;;;;;;76.87;62.60;;;26.70;7.90;;;;;;6286770;22;20408;-88
2021/07/10 09:24:49;;;;;;;;;;;;;;;;;;;;;
2021/07/10 09:27:22;;;;;;;75.20;56.10;;;26.60;5.90;;;;;;6285729;22;20725;-89
2021/07/10 09:29:49;;;;;;;72.93;50.07;;;26.00;6.70;;;;;;6286852;22;20480;-88
2021/07/10 09:32:26;;;;;;;74.43;51.20;;;25.80;8.60;;;;;;6277113;22;20448;-89
2021/07/10 09:35:03;;;;;;;75.83;52.87;;;26.20;8.80;;;;;;6287123;22;20444;-88
2021/07/10 09:37:34;;;;;;;64.63;21.37;;;26.10;8.70;;;;;;6286632;22;20438;-88
2021/07/10 09:40:07;;;;;;;73.87;45.90;;;26.10;8.90;;;;;;6287189;22;20783;-90
2021/07/10 09:42:51;;;;;;;;;;;;;;;;;;;;;
2021/07/10 09:45:30;;;;;;;70.97;39.77;;;26.40;6.80;;;;;;6286818;22;20882;-88
2021/07/10 09:48:14;;;;;;;68.77;42.63;;;26.40;7.30;;;;;;6276272;22;20463;-87
2021/07/10 09:51:56;;;;;;;;;;;;;;;;;;;;;
2021/07/10 09:54:36;;;;;;;59.13;13.10;;;27.10;5.20;;;;;;6161603;22;20732;-87
2021/07/10 09:57:40;;;;;;;57.87;12.47;;;26.90;5.80;;;;;;6275292;22;20483;-87
2021/07/10 10:00:41;;;;;;;59.70;11.77;;;26.80;7.50;;;;;;6207918;22;20406;-86
2021/07/10 10:03:12;;;;;;;75.53;48.83;;;26.80;6.10;;;;;;6286608;22;20418;-85
2021/07/10 10:05:52;;;;;;;69.93;47.37;;;26.70;5.20;;;;;;6276804;22;20866;-87
2021/07/10 10:08:35;;;;;;;60.97;10.93;;;26.70;6.00;;;;;;6286904;22;20415;-85
2021/07/10 10:11:14;;;;;;;71.10;47.33;;;26.80;3.60;;;;;;6285541;22;20426;-84
2021/07/10 10:14:18;;;;;;;71.17;43.20;;;26.60;6.10;;;;;;6255186;23;20395;-84
2021/07/10 10:16:48;;;;;;;70.17;45.03;;;25.60;6.30;;;;;;6242643;23;20445;-79
2021/07/10 10:19:17;;;;;;;67.53;40.93;;;25.80;6.80;;;;;;6245990;23;20406;-79
2021/07/10 10:22:02;;;;;;;68.00;37.40;;;25.80;5.40;;;;;;6245969;23;20491;-84
2021/07/10 10:25:20;;;;;;;68.43;38.37;;;26.00;6.50;;;;;;6255689;23;20407;-83
2021/07/10 10:28:05;;;;;;;68.17;31.97;;;25.60;6.10;;;;;;6120139;23;20438;-83
2021/07/10 10:30:32;;;;;;;66.23;29.13;;;25.50;8.40;;;;;;6245483;23;20518;-82
2021/07/10 10:33:00;;;;;;;64.57;26.10;;;25.60;6.10;;;;;;6245118;23;20788;-85
2021/07/10 10:35:27;;;;;;;63.33;29.10;;;25.80;8.20;;;;;;6246021;23;20399;-86
2021/07/10 10:37:55;;;;;;;63.30;26.43;;;26.20;7.50;;;;;;6245448;23;20399;-86
2021/07/10 10:40:25;;;;;;;67.33;24.53;;;26.90;4.60;;;;;;6246070;23;20403;-84
2021/07/10 10:42:55;;;;;;;65.03;27.93;;;27.90;1.80;;;;;;6244424;23;20400;-84
2021/07/10 10:48:53;;;;;;;69.20;26.80;;;29.20;1.00;;;;;;6253807;23;20419;-84
2021/07/10 10:51:32;;;;;;;60.80;10.67;;;29.20;1.00;;;;;;6245480;23;20441;-85
2021/07/10 10:54:36;;;;;;;64.63;11.77;;;30.40;1.00;;;;;;6255621;23;20427;-86
2021/07/10 10:57:12;;;;;;;64.80;12.57;;;30.60;1.00;;;;;;6244734;23;20875;-84
2021/07/10 10:59:57;;;;;;;66.20;13.13;;;30.20;1.00;;;;;;6245417;23;20403;-84
2021/07/10 11:02:54;;;;;;;64.00;12.90;;;30.00;1.00;;;;;;6245653;23;20395;-87
2021/07/10 11:05:57;;;;;;;67.00;13.60;;;29.60;1.00;;;;;;6243369;23;20415;-84
2021/07/10 11:08:41;;;;;;;73.07;41.37;;;29.00;1.00;;;;;;6244890;23;20399;-85
2021/07/10 11:11:43;;;;;;;62.20;11.73;;;28.70;1.00;;;;;;6254067;23;20437;-84
2021/07/10 11:24:23;;;;;;;62.47;10.90;;;30.00;1.00;;;;;;6066786;23;20463;-84
2021/07/10 11:27:24;;;;;;;67.97;11.90;;;30.10;1.00;;;;;;6241057;22;20414;-84
2021/07/10 11:33:53;;;;;;;65.27;11.97;;;30.00;1.00;;;;;;6185484;23;20415;-80
2021/07/10 11:36:55;;;;;;;65.73;12.27;;;29.80;1.00;;;;;;6244080;23;20430;-82
2021/07/10 11:39:50;;;;;;;63.37;12.17;;;29.50;1.00;;;;;;6241913;23;20403;-82
2021/07/10 11:42:45;;;;;;;63.80;11.63;;;28.60;1.00;;;;;;6241743;23;20399;-80
2021/07/10 11:45:25;;;;;;;62.47;9.73;;;29.00;1.00;;;;;;6256056;23;20399;-88
2021/07/10 11:47:55;;;;;;;63.37;11.70;;;30.00;1.00;;;;;;6245680;23;20399;-83
2021/07/10 11:50:24;;;;;;;61.43;10.60;;;30.50;1.00;;;;;;6255470;23;20917;-85
2021/07/10 11:52:59;;;;;;;63.33;12.00;;;31.20;1.00;;;;;;6255848;23;20493;-82
2021/07/10 11:55:29;;;;;;;64.97;13.00;;;30.70;1.00;;;;;;6255928;23;20474;-84
2021/07/10 11:57:56;;;;;;;64.17;12.60;;;31.00;1.00;;;;;;6243726;23;20458;-83
2021/07/10 12:00:24;;;;;;;66.80;12.73;;;30.60;1.00;;;;;;6245751;23;20426;-85
2021/07/10 12:02:53;;;;;;;66.47;13.37;;;30.00;1.00;;;;;;6255627;23;20406;-85
2021/07/10 12:05:23;;;;;;;64.90;12.33;;;29.10;1.00;;;;;;6246929;23;20468;-83
2021/07/10 12:07:54;;;;;;;64.00;12.37;;;28.90;1.00;;;;;;6244806;23;20771;-83
2021/07/10 12:10:24;;;;;;;63.40;12.77;;;28.40;1.00;;;;;;6243821;23;20438;-81
2021/07/10 12:12:56;;;;;;;63.20;11.77;;;28.50;1.00;;;;;;6273427;22;20840;-83
2021/07/10 12:39:08;;;;;;;63.60;10.20;;;27.80;1.00;;;;;;6243020;22;20506;-83
2021/07/10 12:41:41;;;;;;;59.47;8.80;;;27.50;1.00;;;;;;6271730;22;20460;-87
2021/07/10 12:44:15;;;;;;;60.87;9.67;;;27.20;1.00;;;;;;6287806;22;20493;-86
2021/07/10 12:46:49;;;;;;;58.77;9.30;;;27.00;1.00;;;;;;6277193;22;20464;-86
2021/07/10 12:49:17;;;;;;;59.37;8.80;;;26.70;1.00;;;;;;6277244;22;20869;-85
2021/07/10 12:51:45;;;;;;;59.07;8.40;;;26.30;1.00;;;;;;6277072;22;20528;-86
2021/07/10 12:54:31;;;;;;;61.93;11.27;;;26.00;1.00;;;;;;6287566;22;20410;-84
2021/07/10 12:56:59;;;;;;;59.03;10.97;;;25.90;1.00;;;;;;6275616;22;20426;-84
2021/07/10 12:59:32;;;;;;;64.80;12.53;;;25.80;1.00;;;;;;6277321;22;20426;-86
2021/07/10 13:02:00;;;;;;;57.87;9.97;;;25.80;1.00;;;;;;6277286;22;20490;-84
2021/07/10 13:04:33;;;;;;;109.20;60.50;;;25.80;1.80;;;;;;6287538;22;20409;-85
2021/07/10 13:07:00;;;;;;;58.50;10.13;;;26.30;1.00;;;;;;6287545;22;20489;-85
2021/07/10 13:09:38;;;;;;;58.70;8.37;;;26.70;1.00;;;;;;6277202;22;20468;-81
2021/07/10 13:12:05;;;;;;;58.03;7.70;;;27.20;1.00;;;;;;6275581;22;20430;-77
2021/07/10 13:14:32;;;;;;;57.90;7.90;;;27.70;1.00;;;;;;6276857;22;20398;-77
2021/07/10 13:17:12;;;;;;;56.57;7.00;;;28.60;1.00;;;;;;6277070;22;20399;-77
2021/07/10 13:19:39;;;;;;;63.07;7.67;;;28.90;1.00;;;;;;6277246;22;20394;-78
2021/07/10 13:22:06;;;;;;;61.60;5.93;;;29.50;1.00;;;;;;6276816;22;20405;-79
2021/07/10 13:24:32;;;;;;;60.60;7.80;;;30.20;1.00;;;;;;6277004;22;20394;-78
2021/07/10 13:27:20;;;;;;;59.67;8.00;;;30.90;1.00;;;;;;6259752;22;20431;-83
2021/07/10 13:30:11;;;;;;;61.50;9.70;;;30.80;1.00;;;;;;6246111;23;20401;-82
2021/07/10 13:32:40;;;;;;;61.60;11.43;;;30.50;1.00;;;;;;6256282;23;20408;-82
2021/07/10 13:35:08;;;;;;;63.73;11.23;;;30.50;1.00;;;;;;6256251;23;20414;-80
2021/07/10 14:18:43;;;;;;;59.70;8.40;;;30.40;1.00;;;;;;5969375;24;20425;-81
2021/07/10 14:21:27;;;;;;;62.70;10.00;;;30.00;1.00;;;;;;6151558;23;20416;-81
2021/07/10 14:24:18;;;;;;;61.27;9.77;;;30.40;1.00;;;;;;6180412;23;20418;-82
2021/07/10 14:30:14;;;;;;;62.60;11.17;;;30.90;1.00;;;;;;6027677;23;20388;-82
2021/07/10 14:32:44;;;;;;;62.47;11.00;;;30.90;1.00;;;;;;6286538;22;20399;-84
2021/07/10 14:35:28;;;;;;;63.97;10.90;;;30.10;1.00;;;;;;6276251;22;20395;-84
2021/07/10 14:37:55;;;;;;;64.37;11.80;;;29.60;1.00;;;;;;6286292;22;20434;-81
2021/07/10 14:40:28;;;;;;;64.67;11.07;;;28.80;1.00;;;;;;6276171;22;20406;-82
2021/07/10 14:42:56;;;;;;;62.50;10.80;;;28.40;1.00;;;;;;6285264;22;20398;-82
2021/07/10 14:45:26;;;;;;;66.70;11.07;;;28.20;1.00;;;;;;6276475;22;20477;-81
2021/07/10 14:54:33;;;;;;;62.30;10.63;;;26.60;1.00;;;;;;6012979;23;21068;-80
2021/07/10 14:57:00;;;;;;;62.33;11.00;;;26.20;1.00;;;;;;6251303;22;20790;-81
2021/07/10 14:59:44;;;;;;;;;;;;;;;;;;;;;
2021/07/10 15:02:18;;;;;;;60.13;9.83;;;25.60;1.00;;;;;;6268665;22;20387;-82
2021/07/10 15:05:03;;;;;;;;;;;;;;;;;;;;;
2021/07/10 15:07:32;;;;;;;59.23;8.87;;;25.30;1.00;;;;;;6247156;22;20398;-81
2021/07/10 15:10:00;;;;;;;57.83;7.47;;;25.20;1.00;;;;;;6284934;22;20410;-81
2021/07/10 15:12:27;;;;;;;57.87;8.13;;;25.00;1.00;;;;;;6272691;22;20520;-80
2021/07/10 15:14:56;;;;;;;62.63;8.20;;;24.90;1.00;;;;;;6284773;22;20418;-81
2021/07/10 15:17:22;;;;;;;59.57;8.23;;;25.00;1.00;;;;;;6274648;22;20425;-82
2021/07/10 15:19:50;;;;;;;62.53;8.63;;;25.00;1.10;;;;;;6276273;22;20466;-80
2021/07/10 15:22:20;;;;;;;58.70;8.57;;;24.70;2.30;;;;;;6276620;22;20409;-79
2021/07/10 15:24:47;;;;;;;57.40;9.10;;;24.70;3.50;;;;;;6276301;22;20405;-81
2021/07/10 15:27:15;;;;;;;59.43;14.53;;;24.40;3.40;;;;;;6274763;22;20472;-79